Time;durP1;ratioP1;P1;durP2;ratioP2;P2;SDS_P1;SDS_P2;PMS_P1;PMS_P2;Temp;Humidity;BMP_temperature;BMP_pressure;BME280_temperature;BME280_humidity;BME280_pressure;Samples;Min_cycle;Max_cycle;Signal;HPM_P1;HPM_P2
2021/07/30 05:00:58;;;;;;;18.25;6.25;;;;;;;26.80;47.73;94490.72;6114041;23;20032;31
2021/07/30 05:03:24;;;;;;;13.98;6.63;;;;;;;29.32;43.44;94566.84;4950025;29;20047;-81
2021/07/30 05:05:49;;;;;;;16.73;6.00;;;;;;;30.88;41.99;94565.22;4952655;28;20150;-80
2021/07/30 05:08:15;;;;;;;21.17;6.80;;;;;;;31.60;39.99;94563.00;4951050;29;20432;-80
2021/07/30 05:10:40;;;;;;;23.10;7.82;;;;;;;31.31;40.45;94565.41;4943583;28;20500;-81
2021/07/30 05:13:06;;;;;;;21.73;7.13;;;;;;;32.42;37.82;94570.22;4968716;28;20023;-81
2021/07/30 05:15:31;;;;;;;18.73;6.78;;;;;;;32.95;36.16;94564.44;4971385;28;20535;-81
2021/07/30 05:17:58;;;;;;;30.08;7.90;;;;;;;31.43;38.18;94568.31;4969969;28;20527;-81
2021/07/30 05:20:24;;;;;;;20.67;7.80;;;;;;;32.16;37.53;94574.78;4970305;28;20046;-80
2021/07/30 05:22:49;;;;;;;18.85;6.97;;;;;;;32.65;37.22;94577.00;4953470;28;20139;-81
2021/07/30 05:25:15;;;;;;;20.63;7.15;;;;;;;32.80;36.93;94568.44;4969241;28;20027;-81
2021/07/30 05:27:40;;;;;;;18.00;6.82;;;;;;;33.40;34.94;94570.13;4971237;28;20023;-81
2021/07/30 05:30:06;;;;;;;15.43;6.72;;;;;;;34.47;33.77;94575.00;4968343;28;20098;-82
2021/07/30 05:32:32;;;;;;;21.05;6.80;;;;;;;34.99;33.99;94580.72;4971158;28;20034;-78
2021/07/30 05:34:58;;;;;;;19.20;6.90;;;;;;;34.02;35.61;94569.50;4968409;28;20476;-79
2021/07/30 05:37:23;;;;;;;17.67;7.00;;;;;;;36.11;31.33;94569.34;4953639;28;20416;-79
2021/07/30 05:39:49;;;;;;;15.60;7.10;;;;;;;33.46;35.80;94570.78;4952790;28;20027;-78
2021/07/30 05:42:14;;;;;;;14.18;6.60;;;;;;;34.26;34.22;94570.44;4968771;28;20046;-79
2021/07/30 05:44:40;;;;;;;19.15;6.88;;;;;;;35.95;31.96;94583.50;4967260;28;20027;-79
2021/07/30 05:47:05;;;;;;;18.30;6.80;;;;;;;35.39;31.91;94574.38;4935585;28;20026;-79
2021/07/30 05:49:31;;;;;;;20.13;7.25;;;;;;;33.94;34.53;94581.09;4952224;28;20125;-80
2021/07/30 05:51:56;;;;;;;30.75;8.60;;;;;;;31.20;39.21;94575.63;4951282;28;20033;-81
2021/07/30 05:54:21;;;;;;;26.98;7.47;;;;;;;35.49;32.01;94578.56;4970876;28;20031;-85
2021/07/30 05:56:47;;;;;;;15.98;6.35;;;;;;;36.54;32.41;94572.13;4967960;28;20774;-82
2021/07/30 05:59:12;;;;;;;18.92;7.60;;;;;;;35.14;33.60;94572.00;4953961;28;20027;-83
2021/07/30 06:01:38;;;;;;;20.40;7.72;;;;;;;37.53;30.86;94571.28;4963594;28;20559;-84
2021/07/30 06:04:03;;;;;;;12.95;6.20;;;;;;;37.76;30.33;94564.84;4953677;28;20049;-86
2021/07/30 06:06:30;;;;;;;60.30;10.40;;;;;;;36.00;32.34;94576.28;4953999;28;20476;-84
2021/07/30 06:08:56;;;;;;;19.25;6.85;;;;;;;37.91;30.09;94569.50;4951882;28;20507;-85
2021/07/30 06:11:21;;;;;;;19.48;8.05;;;;;;;38.36;29.45;94579.00;4971511;28;20035;-86
2021/07/30 06:13:46;;;;;;;19.20;8.13;;;;;;;35.39;33.21;94581.69;4969582;28;20026;-87
2021/07/30 06:16:12;;;;;;;19.08;7.70;;;;;;;37.49;31.17;94579.28;4971208;28;20030;-86
2021/07/30 06:18:38;;;;;;;25.08;8.52;;;;;;;38.60;28.35;94575.22;4953082;28;20065;-87
2021/07/30 06:21:05;;;;;;;28.00;8.48;;;;;;;38.46;30.28;94578.44;4954480;28;20030;-87
2021/07/30 06:23:31;;;;;;;19.13;6.82;;;;;;;38.41;30.00;94573.28;4938059;28;20033;-85
2021/07/30 06:25:56;;;;;;;28.27;7.72;;;;;;;37.86;31.72;94577.84;4936213;28;20023;-86
2021/07/30 06:28:22;;;;;;;21.50;7.93;;;;;;;38.97;29.46;94574.41;4953492;28;20031;-84
2021/07/30 06:30:47;;;;;;;17.90;7.65;;;;;;;37.50;31.94;94561.94;4968948;28;20034;-84
2021/07/30 06:33:13;;;;;;;19.92;7.57;;;;;;;37.33;31.62;94573.09;4953166;28;20065;-83
2021/07/30 06:35:38;;;;;;;20.67;8.07;;;;;;;38.14;30.48;94574.22;4968944;28;20031;-85
2021/07/30 06:38:04;;;;;;;16.95;7.68;;;;;;;37.94;31.47;94571.50;4970548;28;20097;-85
2021/07/30 06:40:29;;;;;;;19.90;7.35;;;;;;;39.10;28.76;94568.81;4970081;28;20039;-85
2021/07/30 06:42:55;;;;;;;19.90;8.60;;;;;;;37.12;32.34;94567.16;4969291;28;20031;-83
2021/07/30 06:45:20;;;;;;;23.52;8.23;;;;;;;39.50;29.74;94575.34;4937410;28;20027;-85
2021/07/30 06:47:46;;;;;;;25.27;7.90;;;;;;;40.33;27.80;94570.00;4951594;28;20023;-85
2021/07/30 06:50:11;;;;;;;18.40;8.10;;;;;;;40.33;29.09;94573.47;4953552;28;20030;-85
2021/07/30 06:52:37;;;;;;;16.98;7.78;;;;;;;39.32;30.03;94568.06;4968593;28;20061;-86
2021/07/30 06:55:03;;;;;;;21.58;8.50;;;;;;;39.94;29.10;94567.53;4970033;28;20019;-85
2021/07/30 06:57:28;;;;;;;23.50;9.07;;;;;;;39.03;30.68;94576.81;4951384;28;20667;-85
2021/07/30 06:59:54;;;;;;;20.58;9.10;;;;;;;39.66;28.15;94567.06;4952253;28;20035;-85
2021/07/30 07:02:19;;;;;;;24.85;9.43;;;;;;;37.02;30.51;94571.16;4946185;28;20184;-86
2021/07/30 07:04:45;;;;;;;26.58;9.77;;;;;;;33.99;35.62;94573.63;4967756;28;20027;-86
2021/07/30 07:07:11;;;;;;;30.10;11.68;;;;;;;34.09;33.96;94575.94;4968938;28;20023;-86
2021/07/30 07:09:36;;;;;;;24.20;9.73;;;;;;;34.10;33.27;94579.41;4967738;28;20027;-86
2021/07/30 07:12:02;;;;;;;28.00;10.13;;;;;;;34.19;34.22;94572.09;4968459;28;20035;-87
2021/07/30 07:14:30;;;;;;;20.15;9.43;;;;;;;33.35;37.39;94571.13;4968425;28;20524;-86
2021/07/30 07:16:56;;;;;;;29.25;11.23;;;;;;;36.92;31.64;94567.03;4952728;28;20053;-87
2021/07/30 07:19:22;;;;;;;23.02;8.45;;;;;;;39.52;27.47;94574.97;4969683;28;20023;-85
2021/07/30 07:21:50;;;;;;;24.63;8.45;;;;;;;38.17;30.03;94574.31;4972258;28;20097;-86
2021/07/30 07:24:16;;;;;;;23.38;8.75;;;;;;;36.62;31.80;94571.22;4972802;28;20030;-85
2021/07/30 07:26:41;;;;;;;24.67;8.43;;;;;;;39.31;27.68;94571.91;4972496;28;20018;-86
2021/07/30 07:29:07;;;;;;;25.65;8.30;;;;;;;40.13;26.88;94563.13;4972970;28;20026;-86
2021/07/30 07:31:32;;;;;;;21.88;8.55;;;;;;;39.89;26.86;94567.03;4971738;28;20037;-86
2021/07/30 07:33:58;;;;;;;23.10;9.20;;;;;;;36.75;30.62;94561.13;4972422;28;20558;-85
2021/07/30 07:36:23;;;;;;;24.67;8.73;;;;;;;34.52;32.43;94559.44;4973525;28;20023;-86
2021/07/30 07:38:49;;;;;;;24.33;8.98;;;;;;;34.76;31.56;94562.25;4973245;28;20476;-86
2021/07/30 07:41:14;;;;;;;25.15;8.38;;;;;;;34.61;32.71;94564.78;4973417;28;20100;-84
2021/07/30 07:43:40;;;;;;;20.30;8.77;;;;;;;34.36;33.37;94556.56;4987224;28;20030;-83
2021/07/30 07:46:05;;;;;;;22.27;8.05;;;;;;;34.43;32.34;94558.75;4971869;28;20022;-83
2021/07/30 07:48:30;;;;;;;26.15;8.20;;;;;;;33.46;36.16;94551.97;4969710;28;20487;-83
2021/07/30 07:50:56;;;;;;;20.10;8.20;;;;;;;34.00;33.93;94552.91;4971010;28;20027;-82
2021/07/30 07:53:21;;;;;;;20.60;7.95;;;;;;;34.03;34.51;94560.31;4953107;28;20062;-83
2021/07/30 07:55:49;;;;;;;28.88;9.80;;;;;;;33.20;37.24;94549.38;4972631;28;20460;-81
2021/07/30 07:58:14;;;;;;;26.02;8.02;;;;;;;33.40;37.22;94551.34;4969276;28;20081;-82
2021/07/30 08:00:40;;;;;;;17.95;8.30;;;;;;;34.03;34.11;94550.34;4954837;28;20062;-79
2021/07/30 08:03:05;;;;;;;26.50;8.00;;;;;;;33.92;35.64;94547.25;4974705;28;20491;-82
2021/07/30 08:05:31;;;;;;;20.95;7.72;;;;;;;34.36;35.26;94550.41;4973198;28;20030;-82
2021/07/30 08:07:57;;;;;;;24.88;9.57;;;;;;;30.90;38.58;94546.16;4974788;28;20046;-78
2021/07/30 08:10:22;;;;;;;26.20;9.40;;;;;;;31.78;37.07;94545.09;4956721;28;20117;-78
2021/07/30 08:12:48;;;;;;;22.35;8.18;;;;;;;31.85;36.99;94540.81;4974772;28;20503;-78
2021/07/30 08:15:13;;;;;;;35.63;10.63;;;;;;;33.34;37.94;94544.56;4972968;28;20026;-79
2021/07/30 08:17:39;;;;;;;26.42;8.38;;;;;;;34.89;35.30;94542.31;4974558;28;20026;-79
2021/07/30 08:20:05;;;;;;;20.92;8.32;;;;;;;34.01;36.44;94527.56;4991589;28;20508;-78
2021/07/30 08:22:31;;;;;;;29.95;10.45;;;;;;;31.37;38.63;94528.59;4989367;28;20037;-77
2021/07/30 08:24:56;;;;;;;30.00;9.23;;;;;;;33.00;37.11;94529.38;4990776;28;20018;-79
2021/07/30 08:27:21;;;;;;;34.63;11.43;;;;;;;33.88;36.37;94532.88;4990125;28;20484;-79
2021/07/30 08:29:47;;;;;;;22.48;8.52;;;;;;;33.83;36.06;94535.00;4990295;28;20089;-79
2021/07/30 08:32:12;;;;;;;28.73;7.88;;;;;;;34.24;34.64;94529.63;4972244;28;20053;-78
2021/07/30 08:34:39;;;;;;;21.27;8.65;;;;;;;33.99;35.51;94532.50;4991844;28;20029;-79
2021/07/30 08:37:05;;;;;;;28.13;8.57;;;;;;;34.56;36.15;94529.97;4989549;28;20027;-78
2021/07/30 08:39:30;;;;;;;23.83;8.40;;;;;;;33.48;35.96;94529.03;4989595;28;20034;-78
2021/07/30 08:41:58;;;;;;;21.35;8.10;;;;;;;34.23;36.05;94519.97;4991527;28;20389;-79
2021/07/30 08:44:23;;;;;;;24.73;8.60;;;;;;;34.53;33.59;94520.66;4989900;28;20030;-78
2021/07/30 08:46:49;;;;;;;32.65;9.10;;;;;;;33.91;34.99;94518.78;4974060;28;20029;-79
2021/07/30 08:49:14;;;;;;;26.52;7.28;;;;;;;34.82;31.95;94507.06;4988398;28;20498;-78
2021/07/30 08:51:42;;;;;;;23.15;7.72;;;;;;;35.01;32.33;94503.81;4990456;28;20026;-81
2021/07/30 08:54:08;;;;;;;30.60;9.60;;;;;;;35.17;32.34;94499.38;4973141;28;20057;-83
2021/07/30 08:56:37;;;;;;;23.17;8.32;;;;;;;34.65;32.43;94501.88;4991493;28;20025;-79
2021/07/30 08:59:11;;;;;;;31.83;8.85;;;;;;;34.86;31.60;94497.19;4989875;28;20034;-80
2021/07/30 09:01:37;;;;;;;33.03;9.68;;;;;;;33.85;31.36;94500.47;4969770;28;20046;-82
2021/07/30 09:04:02;;;;;;;29.55;8.45;;;;;;;33.63;33.49;94488.16;4972019;28;20034;-82
2021/07/30 09:06:28;;;;;;;37.13;9.02;;;;;;;34.41;33.07;94491.00;4968460;28;20062;-81
2021/07/30 09:08:53;;;;;;;21.63;7.90;;;;;;;34.78;32.10;94484.59;4954525;28;20552;-82
2021/07/30 09:11:29;;;;;;;27.20;8.27;;;;;;;34.64;33.44;94486.84;4969911;28;20027;-82
2021/07/30 09:13:55;;;;;;;28.05;8.27;;;;;;;34.69;32.72;94475.84;4970367;28;20018;-82
2021/07/30 09:16:21;;;;;;;32.88;7.60;;;;;;;35.04;30.43;94475.44;4971068;28;20027;-82
2021/07/30 09:18:46;;;;;;;21.00;7.82;;;;;;;34.37;32.54;94471.25;4953132;28;20158;-81
2021/07/30 09:21:15;;;;;;;26.85;8.48;;;;;;;34.69;32.08;94464.28;4986204;28;20424;-81
2021/07/30 09:23:47;;;;;;;;;;;;;;;35.31;30.76;94467.50;4970300;28;20037;-79
2021/07/30 09:26:50;;;;;;;23.45;8.48;;;;;;;34.78;31.24;94463.06;4971654;28;19918;-80
2021/07/30 09:29:20;;;;;;;25.63;7.88;;;;;;;34.90;31.79;94460.38;4949183;28;20423;-82
2021/07/30 09:31:49;;;;;;;21.13;8.00;;;;;;;35.16;30.31;94456.63;4966796;28;20500;-81
2021/07/30 09:34:25;;;;;;;30.65;7.35;;;;;;;35.43;30.42;94459.38;4964907;28;20077;-81
2021/07/30 09:36:56;;;;;;;28.65;8.45;;;;;;;35.56;30.69;94452.06;4981710;28;20031;-78
2021/07/30 09:39:35;;;;;;;28.02;7.53;;;;;;;35.56;30.01;94453.97;4965908;28;20038;-85
2021/07/30 09:42:10;;;;;;;21.98;7.25;;;;;;;35.61;31.18;94451.84;4967255;28;20050;-83
2021/07/30 09:44:42;;;;;;;28.70;8.57;;;;;;;34.71;31.76;94443.97;4968681;28;20023;-82
2021/07/30 09:47:14;;;;;;;23.42;7.95;;;;;;;35.42;31.01;94446.25;4971320;28;20034;-85
2021/07/30 09:49:45;;;;;;;24.55;7.13;;;;;;;35.33;29.53;94446.38;4984178;28;20034;-85
2021/07/30 09:52:15;;;;;;;33.33;8.32;;;;;;;35.48;29.21;94436.03;4971117;28;20027;-80
2021/07/30 09:54:53;;;;;;;24.13;7.50;;;;;;;35.41;30.08;94442.00;4967572;28;20423;-82
2021/07/30 09:57:26;;;;;;;30.17;7.97;;;;;;;35.40;28.53;94435.03;4953384;28;20026;-81
2021/07/30 09:59:55;;;;;;;24.15;7.80;;;;;;;35.39;27.76;94433.44;4953823;28;20018;-86
2021/07/30 10:02:21;;;;;;;23.58;7.88;;;;;;;35.06;29.79;94425.50;4952675;28;20505;-87
2021/07/30 10:04:48;;;;;;;31.80;8.38;;;;;;;35.35;30.86;94422.56;4953633;28;20030;-85
2021/07/30 10:07:32;;;;;;;21.70;7.43;;;;;;;35.93;29.58;94425.81;4969327;28;20054;-84
2021/07/30 10:10:08;;;;;;;23.08;8.68;;;;;;;36.03;29.76;94427.22;4969569;28;20444;-86
2021/07/30 10:12:35;;;;;;;21.42;8.38;;;;;;;35.71;30.36;94423.63;4969283;28;20111;-82
2021/07/30 10:15:01;;;;;;;19.10;7.45;;;;;;;35.32;29.67;94417.84;4936728;28;20509;-85
2021/07/30 10:17:30;;;;;;;29.20;9.40;;;;;;;35.52;27.72;94412.63;4953535;28;20045;-85
2021/07/30 10:19:57;;;;;;;22.63;7.28;;;;;;;35.57;29.17;94418.59;4967728;28;20022;-84
2021/07/30 10:22:22;;;;;;;26.45;7.72;;;;;;;35.61;27.03;94413.34;4953642;28;20528;-85
2021/07/30 10:24:50;;;;;;;24.77;8.05;;;;;;;35.61;27.85;94414.09;4967377;28;20030;-84
2021/07/30 10:27:16;;;;;;;25.80;7.40;;;;;;;35.62;27.99;94410.28;4969492;28;20113;-85
2021/07/30 10:30:06;;;;;;;31.45;8.27;;;;;;;35.43;28.53;94402.78;4953118;28;20126;-86
2021/07/30 10:32:54;;;;;;;21.13;7.32;;;;;;;35.94;28.64;94401.19;4969500;28;20033;-85
2021/07/30 10:35:25;;;;;;;29.42;8.02;;;;;;;36.14;27.29;94399.44;4953962;28;20027;-84
2021/07/30 10:37:51;;;;;;;16.85;6.93;;;;;;;36.30;27.04;94394.06;4969229;28;20105;-88
2021/07/30 10:40:21;;;;;;;22.48;6.93;;;;;;;36.12;27.13;94392.81;4969654;28;20400;-85
2021/07/30 10:43:02;;;;;;;18.67;6.60;;;;;;;36.22;25.76;94381.53;4968566;28;20039;-85
2021/07/30 10:45:32;;;;;;;22.38;7.05;;;;;;;36.60;25.36;94375.56;4967666;28;20054;-85
2021/07/30 10:48:16;;;;;;;16.55;6.35;;;;;;;36.42;27.37;94377.78;4967622;28;20416;-88
2021/07/30 10:50:51;;;;;;;23.08;6.90;;;;;;;36.47;25.76;94366.72;4966335;28;20456;-88
2021/07/30 10:53:34;;;;;;;17.75;5.90;;;;;;;36.39;23.61;94362.28;4953293;28;20031;-87
2021/07/30 10:56:00;;;;;;;24.40;7.05;;;;;;;36.31;24.51;94361.31;4969643;28;20408;-90
2021/07/30 10:58:44;;;;;;;19.73;7.07;;;;;;;36.49;24.43;94353.66;4967396;28;20437;-87
2021/07/30 11:01:10;;;;;;;25.67;6.47;;;;;;;36.86;25.57;94354.19;4966773;28;20059;-83
2021/07/30 11:03:51;;;;;;;17.67;5.38;;;;;;;36.46;22.47;94346.25;4967459;28;20077;-87
2021/07/30 11:06:17;;;;;;;30.00;7.05;;;;;;;36.76;23.11;94347.41;4969620;28;20571;-86
2021/07/30 11:11:41;;;;;;;22.85;6.70;;;;;;;36.57;22.16;94331.13;4957094;28;20039;-86
2021/07/30 11:14:13;;;;;;;28.08;7.65;;;;;;;36.81;23.50;94336.31;4963642;28;20159;-87
2021/07/30 11:16:45;;;;;;;29.77;6.60;;;;;;;36.89;23.26;94335.31;4967958;28;20043;-85
2021/07/30 11:19:11;;;;;;;28.63;6.07;;;;;;;36.85;22.94;94320.19;4944592;28;20113;-86
2021/07/30 11:21:37;;;;;;;21.90;6.65;;;;;;;36.88;22.82;94325.69;4968142;28;20460;-85
2021/07/30 11:24:03;;;;;;;13.45;5.68;;;;;;;37.11;24.69;94327.75;4967904;28;20034;-87
2021/07/30 11:26:28;;;;;;;21.73;6.95;;;;;;;37.23;24.67;94322.19;4968913;28;20559;-84
2021/07/30 11:28:59;;;;;;;34.15;7.22;;;;;;;37.24;23.04;94316.44;4966852;28;20042;-87
2021/07/30 11:31:25;;;;;;;24.65;6.25;;;;;;;37.17;23.15;94315.50;4969807;28;20035;-83
2021/07/30 11:33:50;;;;;;;28.98;7.03;;;;;;;37.24;23.65;94304.84;4963589;28;20039;-80
2021/07/30 11:36:16;;;;;;;22.80;6.00;;;;;;;37.14;23.79;94310.81;4949108;29;20039;-81
2021/07/30 11:38:51;;;;;;;36.58;8.38;;;;;;;36.81;23.07;94303.13;4949324;28;20661;-80
2021/07/30 11:41:16;;;;;;;17.85;7.53;;;;;;;36.55;24.21;94295.59;4964215;28;20054;-81
2021/07/30 11:44:06;;;;;;;23.67;6.50;;;;;;;36.82;23.17;94310.09;4933205;29;20019;-83
2021/07/30 11:46:32;;;;;;;22.13;6.85;;;;;;;37.24;24.97;94302.16;4963105;28;20030;-80
2021/07/30 11:48:58;;;;;;;19.73;6.40;;;;;;;37.34;24.53;94298.88;4948697;29;20109;-83
2021/07/30 11:51:24;;;;;;;22.75;6.32;;;;;;;37.27;25.60;94294.13;4951116;28;20039;-87
2021/07/30 11:53:54;;;;;;;27.63;6.50;;;;;;;37.14;23.82;94291.91;4968339;28;20058;-83
2021/07/30 11:56:19;;;;;;;25.10;6.85;;;;;;;37.27;24.06;94282.50;4968097;28;20389;-83
2021/07/30 11:58:58;;;;;;;34.45;7.88;;;;;;;37.16;23.73;94276.09;4983145;28;20031;-84
2021/07/30 12:01:33;;;;;;;21.70;7.05;;;;;;;37.25;24.73;94280.16;4968174;28;20053;-84
2021/07/30 12:04:17;;;;;;;25.17;6.90;;;;;;;37.37;25.79;94268.44;4982556;28;20034;-83
2021/07/30 12:06:49;;;;;;;28.25;7.25;;;;;;;37.18;23.27;94265.72;4970483;28;20392;-79
2021/07/30 12:09:16;;;;;;;21.52;7.43;;;;;;;37.32;23.04;94263.28;4970777;28;20027;-84
2021/07/30 12:11:43;;;;;;;33.50;7.80;;;;;;;37.14;22.62;94260.25;4972040;28;20419;-80
2021/07/30 12:14:08;;;;;;;28.35;7.13;;;;;;;36.95;24.58;94261.00;4955524;28;20035;-81
2021/07/30 12:16:34;;;;;;;31.58;6.70;;;;;;;37.23;24.39;94257.31;4969808;28;20089;-84
2021/07/30 12:18:59;;;;;;;28.40;6.78;;;;;;;37.19;24.07;94256.47;4971683;28;20030;-85
2021/07/30 12:21:25;;;;;;;25.83;6.47;;;;;;;36.68;22.36;94250.34;4971227;28;20019;-80
2021/07/30 12:23:50;;;;;;;24.33;6.35;;;;;;;36.72;22.91;94243.91;4971314;28;20030;-79
2021/07/30 12:26:35;;;;;;;22.40;6.13;;;;;;;37.05;23.88;94240.75;4970178;28;20082;-81
2021/07/30 12:29:01;;;;;;;21.40;6.82;;;;;;;37.21;23.02;94238.00;4970464;28;20522;-81
2021/07/30 12:31:26;;;;;;;20.00;6.50;;;;;;;37.24;23.42;94232.66;4971246;28;20027;-83
2021/07/30 12:34:16;;;;;;;28.33;7.40;;;;;;;37.40;23.99;94227.16;4985801;28;20054;-81
2021/07/30 12:36:42;;;;;;;25.13;6.38;;;;;;;36.98;23.10;94221.66;4955059;28;20023;-82
2021/07/30 12:39:08;;;;;;;24.48;7.38;;;;;;;36.96;23.39;94213.91;4969763;28;20038;-82
2021/07/30 12:41:34;;;;;;;27.70;7.03;;;;;;;37.08;22.30;94221.13;4967214;28;20038;-84
2021/07/30 12:44:18;;;;;;;27.42;7.70;;;;;;;36.73;21.85;94221.16;4969141;28;20074;-81
2021/07/30 12:46:48;;;;;;;31.90;7.28;;;;;;;36.52;21.63;94215.25;4965513;28;20540;-82
2021/07/30 12:49:15;;;;;;;26.63;6.85;;;;;;;36.85;23.43;94212.91;4966934;28;20083;-79
2021/07/30 12:51:43;;;;;;;23.45;6.47;;;;;;;36.71;22.43;94204.50;4966115;28;20055;-81
2021/07/30 12:54:08;;;;;;;25.33;7.47;;;;;;;37.51;23.54;94206.50;4967318;28;20027;-83
2021/07/30 12:56:56;;;;;;;30.83;6.77;;;;;;;37.27;22.12;94207.59;4951801;28;20024;-84
2021/07/30 12:59:46;;;;;;;21.40;5.80;;;;;;;37.23;23.35;94206.75;4951340;28;20271;-82
2021/07/30 13:02:12;;;;;;;22.35;7.00;;;;;;;37.38;23.13;94203.16;4942149;29;20139;-81
2021/07/30 13:04:37;;;;;;;20.00;6.68;;;;;;;37.32;22.84;94201.13;4949760;29;20831;-83
2021/07/30 13:07:03;;;;;;;21.75;6.43;;;;;;;36.85;22.71;94196.72;4952472;29;20035;-83
2021/07/30 13:09:28;;;;;;;24.95;6.55;;;;;;;37.02;23.35;94197.47;4933753;29;20082;-83
2021/07/30 13:11:54;;;;;;;15.85;5.22;;;;;;;37.35;24.63;94192.28;4952043;29;20054;-81
2021/07/30 13:14:19;;;;;;;30.55;7.13;;;;;;;37.23;23.08;94197.84;4934882;29;20057;-82
2021/07/30 13:16:45;;;;;;;17.33;5.93;;;;;;;37.38;23.11;94186.16;4933408;29;20035;-82
2021/07/30 13:19:10;;;;;;;23.20;6.70;;;;;;;37.23;23.07;94187.03;4918638;29;20493;-82
2021/07/30 13:21:36;;;;;;;21.80;6.85;;;;;;;36.85;22.88;94183.22;4949387;29;20031;-83
2021/07/30 13:24:01;;;;;;;25.55;6.07;;;;;;;36.89;23.13;94185.97;4952186;29;20023;-83
2021/07/30 13:26:27;;;;;;;24.08;6.15;;;;;;;36.65;22.44;94187.03;4950512;29;20038;-81
2021/07/30 13:28:52;;;;;;;21.15;5.80;;;;;;;37.19;23.67;94180.78;4951998;29;20098;-80
2021/07/30 13:31:17;;;;;;;22.90;6.80;;;;;;;36.83;24.28;94171.94;4951274;29;20382;-84
2021/07/30 13:33:43;;;;;;;22.98;6.05;;;;;;;36.79;23.46;94171.13;4951262;29;20046;-81
2021/07/30 13:36:08;;;;;;;25.83;6.50;;;;;;;36.76;24.16;94174.53;4950825;29;20106;-81
2021/07/30 13:38:34;;;;;;;20.75;7.07;;;;;;;36.96;24.30;94170.69;4933100;29;20035;-84
2021/07/30 13:41:01;;;;;;;20.70;5.65;;;;;;;36.92;24.33;94169.06;4934775;29;20046;-80
2021/07/30 13:43:26;;;;;;;23.58;6.43;;;;;;;37.00;23.34;94164.59;4962459;28;20464;-83
2021/07/30 13:45:52;;;;;;;33.38;7.20;;;;;;;36.90;23.83;94171.31;4953246;28;20035;-82
2021/07/30 13:48:17;;;;;;;26.30;6.35;;;;;;;36.94;24.81;94166.78;4969683;28;20570;-82
2021/07/30 13:50:42;;;;;;;16.20;6.13;;;;;;;36.81;23.55;94165.34;4967137;28;20073;-81
2021/07/30 13:53:08;;;;;;;22.23;6.43;;;;;;;36.77;23.75;94162.56;4949684;29;20496;-82
2021/07/30 13:55:34;;;;;;;20.92;5.90;;;;;;;36.68;24.40;94162.00;4942271;28;20042;-82
2021/07/30 13:58:00;;;;;;;20.33;6.55;;;;;;;36.66;23.35;94169.69;4969696;28;20053;-83
2021/07/30 14:00:25;;;;;;;17.35;6.20;;;;;;;36.35;22.90;94158.94;4967663;28;20387;-82
2021/07/30 14:02:51;;;;;;;23.70;6.30;;;;;;;36.23;24.28;94154.44;4986058;28;20057;-83
2021/07/30 14:05:17;;;;;;;28.80;6.65;;;;;;;36.30;24.82;94162.72;4988498;28;20101;-81
2021/07/30 14:07:43;;;;;;;20.55;6.18;;;;;;;36.48;24.20;94158.47;4972618;28;20030;-83
2021/07/30 14:10:10;;;;;;;27.98;6.43;;;;;;;36.64;24.82;94157.69;4971867;28;20534;-83
2021/07/30 14:12:36;;;;;;;24.17;6.60;;;;;;;36.81;23.98;94158.03;4971981;28;20031;-82
2021/07/30 14:15:03;;;;;;;22.75;5.85;;;;;;;36.61;23.99;94152.97;4989741;28;20022;-81
2021/07/30 14:17:28;;;;;;;18.75;6.45;;;;;;;36.55;25.16;94154.38;4983540;28;20086;-79
2021/07/30 14:19:53;;;;;;;16.10;5.95;;;;;;;36.55;24.51;94154.38;4989861;28;20088;-82
2021/07/30 14:22:19;;;;;;;21.60;6.05;;;;;;;36.46;25.12;94154.56;4968255;28;20023;-86
2021/07/30 14:24:44;;;;;;;21.35;6.63;;;;;;;36.29;23.78;94152.25;4980028;28;20026;-81
2021/07/30 14:27:10;;;;;;;22.98;6.22;;;;;;;36.07;23.19;94145.59;4966002;28;20492;-81
2021/07/30 14:29:36;;;;;;;20.20;6.55;;;;;;;35.98;25.42;94155.78;4979796;28;20484;-81
2021/07/30 14:32:03;;;;;;;20.30;6.10;;;;;;;36.30;25.29;94157.31;4959335;28;20026;-82
2021/07/30 14:34:28;;;;;;;20.95;6.40;;;;;;;36.27;25.09;94149.13;4968777;28;20411;-82
2021/07/30 14:36:54;;;;;;;28.08;6.15;;;;;;;36.10;25.53;94150.31;4985121;28;20026;-80
2021/07/30 14:39:23;;;;;;;18.80;6.22;;;;;;;36.10;26.47;94157.59;4982911;28;20487;-81
2021/07/30 14:41:48;;;;;;;;;;;;;;;36.08;25.68;94163.38;4987875;28;20081;-81
2021/07/30 14:44:14;;;;;;;22.85;6.22;;;;;;;35.96;25.72;94160.75;4970031;28;20391;-82
2021/07/30 14:46:39;;;;;;;20.67;6.18;;;;;;;35.88;26.64;94161.69;4989017;28;20033;-82
2021/07/30 14:49:05;;;;;;;25.98;6.72;;;;;;;35.82;25.31;94152.31;4986670;28;20030;-81
2021/07/30 14:51:30;;;;;;;17.20;5.50;;;;;;;36.04;26.11;94142.81;4970402;28;20030;-81
2021/07/30 14:53:56;;;;;;;18.75;6.72;;;;;;;35.46;31.89;94153.31;4971810;28;20026;-81
2021/07/30 14:56:22;;;;;;;23.75;6.82;;;;;;;35.22;33.66;94156.97;4970023;28;20026;-80
2021/07/30 14:58:47;;;;;;;18.05;7.00;;;;;;;35.05;34.41;94154.53;4988890;28;20037;-80
2021/07/30 15:01:13;;;;;;;17.30;6.68;;;;;;;35.13;35.74;94148.25;4969579;28;20042;-81
2021/07/30 15:03:40;;;;;;;20.90;7.90;;;;;;;34.96;34.88;94153.91;4971436;28;20100;-81
2021/07/30 15:06:07;;;;;;;17.15;7.22;;;;;;;34.73;35.56;94153.69;4970781;28;20492;-80
2021/07/30 15:08:32;;;;;;;22.20;7.43;;;;;;;34.66;34.63;94153.47;4987476;28;20037;-82
2021/07/30 15:10:59;;;;;;;17.00;7.25;;;;;;;34.82;34.52;94156.22;4955230;28;20034;-80
2021/07/30 15:13:24;;;;;;;15.50;6.97;;;;;;;34.81;35.75;94146.56;4983699;28;20579;-82
2021/07/30 15:15:52;;;;;;;20.83;6.70;;;;;;;34.80;35.12;94148.50;4985638;28;20109;-79
2021/07/30 15:18:17;;;;;;;17.15;7.38;;;;;;;34.57;37.75;94155.50;4985532;28;20496;-82
2021/07/30 15:20:43;;;;;;;24.65;7.90;;;;;;;34.30;38.27;94150.84;4971492;28;20037;-80
2021/07/30 15:23:08;;;;;;;23.75;8.50;;;;;;;34.24;38.35;94150.28;4969921;28;20030;-83
2021/07/30 15:25:34;;;;;;;25.23;8.38;;;;;;;34.29;38.31;94157.34;4971024;28;20655;-81
2021/07/30 15:28:00;;;;;;;19.75;7.18;;;;;;;34.34;38.92;94162.50;4953222;28;20385;-81
2021/07/30 15:30:26;;;;;;;18.25;7.32;;;;;;;34.23;38.70;94161.41;4964481;28;20069;-82
2021/07/30 15:32:52;;;;;;;32.17;8.38;;;;;;;34.13;38.87;94159.94;4986041;28;20029;-81
2021/07/30 15:35:18;;;;;;;22.10;7.57;;;;;;;33.98;38.57;94160.59;4984870;28;20030;-81
2021/07/30 15:37:43;;;;;;;16.90;6.88;;;;;;;34.08;38.48;94167.44;4971034;28;20038;-82
2021/07/30 15:40:09;;;;;;;21.25;7.20;;;;;;;33.90;38.49;94172.25;4969864;28;20030;-82
2021/07/30 15:42:34;;;;;;;18.10;7.43;;;;;;;33.88;38.76;94175.28;4991782;28;20689;-81
2021/07/30 15:45:03;;;;;;;18.60;7.13;;;;;;;33.84;38.83;94166.31;4954243;28;20419;-81
2021/07/30 15:47:28;;;;;;;19.08;7.38;;;;;;;33.72;38.79;94169.00;4972858;28;20026;-82
2021/07/30 15:49:53;;;;;;;20.60;6.78;;;;;;;33.65;39.56;94170.69;4992206;28;20108;-81
2021/07/30 15:52:20;;;;;;;18.65;7.68;;;;;;;33.50;39.61;94160.53;4973847;28;20041;-86
2021/07/30 15:54:46;;;;;;;18.42;6.80;;;;;;;33.44;39.74;94175.31;4992617;28;20109;-80
2021/07/30 15:57:11;;;;;;;22.95;6.95;;;;;;;33.46;40.07;94163.09;4989813;28;20412;-81
2021/07/30 15:59:37;;;;;;;19.50;6.85;;;;;;;33.32;39.63;94165.34;4992482;28;20466;-82
2021/07/30 16:02:03;;;;;;;19.65;7.00;;;;;;;33.23;39.92;94178.09;4970035;28;20113;-80
2021/07/30 16:04:29;;;;;;;14.73;6.72;;;;;;;33.19;41.12;94171.78;4971633;28;20027;-81
2021/07/30 16:06:54;;;;;;;22.88;6.68;;;;;;;33.16;41.62;94177.84;4970746;28;20496;-81
2021/07/30 16:09:20;;;;;;;22.73;7.28;;;;;;;33.13;41.94;94173.13;4971886;28;20034;-81
2021/07/30 16:11:45;;;;;;;16.33;7.97;;;;;;;32.76;42.67;94170.25;4983613;28;20042;-80
2021/07/30 16:14:11;;;;;;;18.58;7.07;;;;;;;32.59;42.98;94173.09;4957485;28;20035;-80
2021/07/30 16:16:36;;;;;;;15.40;7.45;;;;;;;32.55;42.35;94176.72;4972721;28;20444;-80
2021/07/30 16:19:02;;;;;;;22.38;7.72;;;;;;;32.55;41.92;94180.22;4969639;28;20504;-82
2021/07/30 16:21:28;;;;;;;20.13;7.28;;;;;;;32.45;42.13;94185.16;4971420;28;20035;-85
2021/07/30 16:23:54;;;;;;;15.52;7.20;;;;;;;32.29;42.67;94182.28;4971371;28;20090;-81
2021/07/30 16:26:20;;;;;;;18.23;7.25;;;;;;;32.20;43.22;94186.91;4987187;28;20071;-81
2021/07/30 16:28:46;;;;;;;17.63;7.30;;;;;;;32.09;43.78;94180.34;4972450;28;20129;-81
2021/07/30 16:31:12;;;;;;;19.55;7.57;;;;;;;31.88;44.24;94193.69;4970042;28;20718;-81